Delemont, Switzerland
Current Conditions -  °F | °C
As of 8:50 PM on Tuesday 21 Oct 2014 (Local Time) from LSZG Reporting Station
Light Rain Light Rain  
Wind Chill: 50°   Ceiling: Unl
Heat Index: 50°   Visibility: 5mi
Dew Point: 41°   Wind: 35mph
Humidity: 71%   Direction: 290°WNW
Pressure: 29.85"   Gusts: 62mph
Location:  47.37°N, 7.33°E
Report Text: LSZG 211850Z AUTO 29030G54KT 260V320 8000 -RA BKN/// 10/05 Q1011 RESHRA
Loading
Personal Weather Stations






























Interactive Weather Map
Tropical Storm Tracking
New forecast layout! Learn more

10-Day Weather Forecast

Advertisements
Track Severe Weather on mobile